createdAt,value
2022-08-22T00:00:48.678Z,18.90
2022-08-22T00:02:53.348Z,21.10
2022-08-22T00:02:54.565Z,19.30
2022-08-22T00:03:34.927Z,18.90
2022-08-22T00:06:12.104Z,18.90
2022-08-22T00:08:54.163Z,18.90
2022-08-22T00:11:33.051Z,18.90
2022-08-22T00:14:14.481Z,18.90
2022-08-22T00:16:54.563Z,18.90
2022-08-22T00:19:35.170Z,18.80
2022-08-22T00:22:12.619Z,18.80
2022-08-22T00:24:48.594Z,18.80
2022-08-22T00:27:23.095Z,18.80
2022-08-22T00:30:07.914Z,18.80
2022-08-22T00:32:42.611Z,18.70
2022-08-22T00:35:20.339Z,18.70
2022-08-22T00:38:00.423Z,18.70
2022-08-22T00:40:47.058Z,18.70
2022-08-22T00:43:59.466Z,18.70
2022-08-22T00:46:52.462Z,18.70
2022-08-22T00:49:40.691Z,18.60
2022-08-22T00:52:53.699Z,18.60
2022-08-22T00:55:53.134Z,18.60
2022-08-22T00:58:52.424Z,18.60
2022-08-22T01:01:29.905Z,18.60
2022-08-22T01:04:22.577Z,18.60
2022-08-22T01:07:09.356Z,18.60
2022-08-22T01:09:52.881Z,18.60
2022-08-22T01:12:45.947Z,18.60
2022-08-22T01:15:22.005Z,18.60
2022-08-22T01:18:29.373Z,18.60
2022-08-22T01:21:52.439Z,18.60
2022-08-22T01:25:25.993Z,18.50
2022-08-22T01:28:39.628Z,18.50
2022-08-22T01:32:10.247Z,18.50
2022-08-22T01:35:25.274Z,18.50
2022-08-22T01:38:23.213Z,18.40
2022-08-22T01:41:19.920Z,18.40
2022-08-22T01:44:21.400Z,18.30
2022-08-22T01:47:00.595Z,18.30
2022-08-22T01:49:38.096Z,18.30
2022-08-22T01:52:12.295Z,18.30
2022-08-22T01:54:50.853Z,18.20
2022-08-22T01:57:19.238Z,18.20
2022-08-22T01:59:50.070Z,18.20
2022-08-22T02:02:46.058Z,18.30
2022-08-22T02:05:27.331Z,18.30
2022-08-22T02:08:03.317Z,18.20
2022-08-22T02:10:52.371Z,18.20
2022-08-22T02:13:51.067Z,18.20
2022-08-22T02:16:32.659Z,18.20
2022-08-22T02:19:28.441Z,18.10
2022-08-22T02:22:03.144Z,18.10
2022-08-22T02:24:51.054Z,18.10
2022-08-22T02:27:33.316Z,18.10
2022-08-22T02:30:08.871Z,18.10
2022-08-22T02:32:54.055Z,18.10
2022-08-22T02:35:30.839Z,18.10
2022-08-22T02:38:13.901Z,18.10
2022-08-22T02:40:53.342Z,18.10
2022-08-22T02:43:26.734Z,18.10
2022-08-22T02:46:02.340Z,18.10
2022-08-22T02:48:41.889Z,18.00
2022-08-22T02:51:20.886Z,18.00
2022-08-22T02:53:59.513Z,18.00
2022-08-22T02:56:34.880Z,18.00
2022-08-22T02:59:22.490Z,18.00
2022-08-22T03:01:51.395Z,18.00
2022-08-22T03:04:50.831Z,17.90
2022-08-22T03:07:41.154Z,17.90
2022-08-22T03:10:21.938Z,17.90
2022-08-22T03:13:02.805Z,17.90
2022-08-22T03:15:40.157Z,17.80
2022-08-22T03:18:25.761Z,17.80
2022-08-22T03:21:11.421Z,17.80
2022-08-22T03:23:46.500Z,17.80
2022-08-22T03:26:21.963Z,17.80
2022-08-22T03:29:00.106Z,17.80
2022-08-22T03:31:30.618Z,17.80
2022-08-22T03:34:22.442Z,17.80
2022-08-22T03:37:06.082Z,17.70
2022-08-22T03:39:47.685Z,17.70
2022-08-22T03:43:00.378Z,17.70
2022-08-22T03:45:55.590Z,17.70
2022-08-22T03:49:05.608Z,17.70
2022-08-22T03:51:51.528Z,17.60
2022-08-22T03:54:53.003Z,17.60
2022-08-22T03:58:06.548Z,17.70
2022-08-22T04:01:15.347Z,17.60
2022-08-22T04:04:27.287Z,17.60
2022-08-22T04:07:32.147Z,17.70
2022-08-22T04:10:31.000Z,17.70
2022-08-22T04:14:02.359Z,17.70
2022-08-22T04:17:11.768Z,17.70
2022-08-22T04:20:36.945Z,17.70
2022-08-22T04:23:35.700Z,17.70
2022-08-22T04:26:14.575Z,17.80
2022-08-22T04:28:48.974Z,17.80
2022-08-22T04:31:25.152Z,17.80
2022-08-22T04:34:01.206Z,17.80
2022-08-22T04:36:39.747Z,17.80
2022-08-22T04:39:15.308Z,17.80
2022-08-22T04:41:50.240Z,17.80
2022-08-22T04:44:26.242Z,17.80
2022-08-22T04:47:03.281Z,17.90
2022-08-22T04:49:39.858Z,17.90
2022-08-22T04:52:20.623Z,17.90
2022-08-22T04:55:09.552Z,17.90
2022-08-22T04:57:55.793Z,18.00
2022-08-22T05:00:23.604Z,18.00
2022-08-22T05:02:57.112Z,18.00
2022-08-22T05:05:35.557Z,18.00
2022-08-22T05:08:08.985Z,18.10
2022-08-22T05:10:44.332Z,18.10
2022-08-22T05:13:17.992Z,18.10
2022-08-22T05:15:49.755Z,18.10
2022-08-22T05:18:22.196Z,18.10
2022-08-22T05:23:56.903Z,18.20
2022-08-22T05:26:27.251Z,18.20
2022-08-22T05:29:02.389Z,18.20
2022-08-22T05:31:34.502Z,18.30
2022-08-22T05:34:09.836Z,18.40
2022-08-22T05:36:43.202Z,18.40
2022-08-22T05:39:16.619Z,18.50
2022-08-22T05:41:43.880Z,18.60
2022-08-22T05:44:21.116Z,18.70
2022-08-22T05:46:52.699Z,18.70
2022-08-22T05:49:29.656Z,18.80
2022-08-22T05:52:15.335Z,18.90
2022-08-22T05:54:52.044Z,19.00
2022-08-22T05:57:28.783Z,19.10
2022-08-22T06:00:06.163Z,19.20
2022-08-22T06:02:55.156Z,19.20
2022-08-22T06:05:28.907Z,19.30
2022-08-22T06:08:04.869Z,19.40
2022-08-22T06:10:42.096Z,19.50
2022-08-22T06:13:17.355Z,19.50
2022-08-22T06:16:05.727Z,19.60
2022-08-22T06:18:35.597Z,19.70
2022-08-22T06:21:06.634Z,19.90
2022-08-22T06:23:42.395Z,20.10
2022-08-22T06:26:20.613Z,20.20
2022-08-22T06:28:55.196Z,20.40
2022-08-22T06:31:30.491Z,20.60
2022-08-22T06:34:06.235Z,20.80
2022-08-22T06:36:38.794Z,21.00
2022-08-22T06:39:17.420Z,21.10
2022-08-22T06:41:52.387Z,21.10
2022-08-22T06:44:28.359Z,21.30
2022-08-22T06:47:01.078Z,21.30
2022-08-22T06:49:32.396Z,21.30
2022-08-22T06:52:06.443Z,21.30
2022-08-22T06:54:39.600Z,21.40
2022-08-22T06:57:26.525Z,21.40
2022-08-22T06:59:56.834Z,21.30
2022-08-22T07:02:36.611Z,21.30
2022-08-22T07:05:06.531Z,21.40
2022-08-22T07:07:36.141Z,21.50
2022-08-22T07:10:05.861Z,21.60
2022-08-22T07:12:37.117Z,21.70
2022-08-22T07:15:18.557Z,21.70
2022-08-22T07:17:58.233Z,21.70
2022-08-22T07:20:30.724Z,21.70
2022-08-22T07:23:04.622Z,21.80
2022-08-22T07:25:50.576Z,21.80
2022-08-22T07:28:51.633Z,21.90
2022-08-22T07:31:36.256Z,22.00
2022-08-22T07:34:25.232Z,22.20
2022-08-22T07:37:03.077Z,22.30
2022-08-22T07:39:36.432Z,22.60
2022-08-22T07:42:13.925Z,22.80
2022-08-22T07:45:02.643Z,23.20
2022-08-22T07:47:49.862Z,23.40
2022-08-22T07:50:25.356Z,23.70
2022-08-22T07:52:58.175Z,23.90
2022-08-22T07:55:26.768Z,24.10
2022-08-22T07:58:00.801Z,24.40
2022-08-22T08:00:29.828Z,25.10
2022-08-22T08:03:04.468Z,25.60
2022-08-22T08:05:36.089Z,26.10
2022-08-22T08:08:08.826Z,26.50
2022-08-22T08:10:42.810Z,26.80
2022-08-22T08:13:20.660Z,26.50
2022-08-22T08:15:50.449Z,26.60
2022-08-22T08:18:22.133Z,26.70
2022-08-22T08:20:52.814Z,26.90
2022-08-22T08:23:23.453Z,27.00
2022-08-22T08:26:04.960Z,27.30
2022-08-22T08:28:39.980Z,27.20
2022-08-22T08:31:20.635Z,27.30
2022-08-22T08:33:57.906Z,27.80
2022-08-22T08:36:38.991Z,28.00
2022-08-22T08:39:18.615Z,28.20
2022-08-22T08:42:24.407Z,28.20
2022-08-22T08:45:28.960Z,28.20
2022-08-22T08:48:43.983Z,28.30
2022-08-22T08:51:39.310Z,28.50
2022-08-22T08:54:31.711Z,28.90
2022-08-22T08:57:09.835Z,28.20
2022-08-22T08:59:53.236Z,28.70
2022-08-22T09:02:47.752Z,28.90
2022-08-22T09:05:51.300Z,29.10
2022-08-22T09:08:59.670Z,29.50
2022-08-22T09:12:11.275Z,29.70
2022-08-22T09:15:12.019Z,29.20
2022-08-22T09:18:43.751Z,29.80
2022-08-22T09:21:53.050Z,30.50
2022-08-22T09:25:06.793Z,31.00
2022-08-22T09:27:41.043Z,31.30
2022-08-22T09:30:13.136Z,31.40
2022-08-22T09:32:59.162Z,31.70
2022-08-22T09:35:39.993Z,31.70
2022-08-22T09:38:33.795Z,31.80
2022-08-22T09:41:20.765Z,32.10
2022-08-22T09:43:57.735Z,31.30
2022-08-22T09:46:36.910Z,31.50
2022-08-22T09:49:10.925Z,31.90
2022-08-22T09:51:49.294Z,32.30
2022-08-22T09:54:31.101Z,32.50
2022-08-22T09:57:15.414Z,32.50
2022-08-22T10:00:33.937Z,32.20
2022-08-22T10:03:16.041Z,32.10
2022-08-22T10:05:52.821Z,32.20
2022-08-22T10:08:46.848Z,32.40
2022-08-22T10:11:26.374Z,32.70
2022-08-22T10:14:01.977Z,32.50
2022-08-22T10:16:57.117Z,32.40
2022-08-22T10:19:32.045Z,32.70
2022-08-22T10:22:33.202Z,32.80
2022-08-22T10:25:25.002Z,32.40
2022-08-22T10:28:12.404Z,31.20
2022-08-22T10:30:54.740Z,31.20
2022-08-22T10:33:29.653Z,32.00
2022-08-22T10:36:11.746Z,32.50
2022-08-22T10:38:47.013Z,32.90
2022-08-22T10:41:29.328Z,32.60
2022-08-22T10:44:04.861Z,31.60
2022-08-22T10:46:45.885Z,30.90
2022-08-22T10:49:28.893Z,31.50
2022-08-22T10:52:15.264Z,31.80
2022-08-22T10:54:49.791Z,31.90
2022-08-22T10:57:54.709Z,32.20
2022-08-22T11:00:46.460Z,32.30
2022-08-22T11:03:27.807Z,33.20
2022-08-22T11:06:00.975Z,33.60
2022-08-22T11:09:00.032Z,33.80
2022-08-22T11:11:43.601Z,33.80
2022-08-22T11:14:45.143Z,33.50
2022-08-22T11:17:40.729Z,33.40
2022-08-22T11:20:21.256Z,33.30
2022-08-22T11:23:16.490Z,33.20
2022-08-22T11:26:04.940Z,33.60
2022-08-22T11:29:13.817Z,34.00
2022-08-22T11:31:53.318Z,34.40
2022-08-22T11:34:39.779Z,34.60
2022-08-22T11:37:19.659Z,34.90
2022-08-22T11:40:12.585Z,35.00
2022-08-22T11:42:47.800Z,35.00
2022-08-22T11:45:21.539Z,34.50
2022-08-22T11:48:01.524Z,33.40
2022-08-22T11:50:38.791Z,32.70
2022-08-22T11:53:22.991Z,33.60
2022-08-22T11:56:06.059Z,34.10
2022-08-22T11:58:53.929Z,33.80
2022-08-22T12:01:34.362Z,33.00
2022-08-22T12:04:14.643Z,32.70
2022-08-22T12:06:55.008Z,33.00
2022-08-22T12:09:45.776Z,34.00
2022-08-22T12:12:32.755Z,33.00
2022-08-22T12:15:10.730Z,32.60
2022-08-22T12:18:21.824Z,32.90
2022-08-22T12:21:11.540Z,34.00
2022-08-22T12:23:59.018Z,34.20
2022-08-22T12:26:46.815Z,34.40
2022-08-22T12:29:34.094Z,34.70
2022-08-22T12:32:55.583Z,35.10
2022-08-22T12:35:38.619Z,34.00
2022-08-22T12:38:31.264Z,33.60
2022-08-22T12:41:34.725Z,33.80
2022-08-22T12:44:43.840Z,35.20
2022-08-22T12:47:34.391Z,35.10
2022-08-22T12:50:21.547Z,34.90
2022-08-22T12:53:20.280Z,34.20
2022-08-22T12:56:05.977Z,33.10
2022-08-22T12:59:17.705Z,32.30
2022-08-22T13:01:49.369Z,31.80
2022-08-22T13:04:32.963Z,31.50
2022-08-22T13:07:23.137Z,31.30
2022-08-22T13:09:57.570Z,31.50
2022-08-22T13:12:36.368Z,31.30
2022-08-22T13:15:28.766Z,30.90
2022-08-22T13:18:13.208Z,30.90
2022-08-22T13:20:51.711Z,30.80
2022-08-22T13:23:25.917Z,30.60
2022-08-22T13:26:02.038Z,30.40
2022-08-22T13:28:33.355Z,30.10
2022-08-22T13:31:01.847Z,29.80
2022-08-22T13:33:35.214Z,29.50
2022-08-22T13:36:06.987Z,29.30
2022-08-22T13:38:46.441Z,29.20
2022-08-22T13:41:23.420Z,29.10
2022-08-22T13:44:13.544Z,29.00
2022-08-22T13:47:10.823Z,29.00
2022-08-22T13:49:34.773Z,29.00
2022-08-22T13:52:29.368Z,29.10
2022-08-22T13:55:09.195Z,29.00
2022-08-22T13:57:45.563Z,29.00
2022-08-22T14:01:15.368Z,29.10
2022-08-22T14:03:50.213Z,29.50
2022-08-22T14:06:37.934Z,29.70
2022-08-22T14:09:31.996Z,29.90
2022-08-22T14:12:12.800Z,30.80
2022-08-22T14:14:46.388Z,31.30
2022-08-22T14:17:22.640Z,32.30
2022-08-22T14:19:58.914Z,32.80
2022-08-22T14:22:34.927Z,31.90
2022-08-22T14:25:16.502Z,31.40
2022-08-22T14:27:57.072Z,31.00
2022-08-22T14:30:30.725Z,30.60
2022-08-22T14:33:11.744Z,30.30
2022-08-22T14:38:46.144Z,29.40
2022-08-22T14:41:28.569Z,29.10
2022-08-22T14:44:21.848Z,28.80
2022-08-22T14:46:56.265Z,28.50
2022-08-22T14:49:47.197Z,28.20
2022-08-22T14:52:35.064Z,28.00
2022-08-22T14:55:15.603Z,28.00
2022-08-22T14:57:51.072Z,27.90
2022-08-22T15:00:32.973Z,27.80
2022-08-22T15:03:15.942Z,28.00
2022-08-22T15:05:52.349Z,27.90
2022-08-22T15:08:29.208Z,28.00
2022-08-22T15:11:12.375Z,28.00
2022-08-22T15:13:50.387Z,28.30
2022-08-22T15:16:22.355Z,28.60
2022-08-22T15:18:51.976Z,29.20
2022-08-22T15:21:24.136Z,29.50
2022-08-22T15:23:55.546Z,29.90
2022-08-22T15:26:31.850Z,30.20
2022-08-22T15:29:18.334Z,30.40
2022-08-22T15:31:51.644Z,30.60
2022-08-22T15:34:31.450Z,30.80
2022-08-22T15:37:26.291Z,30.80
2022-08-22T15:40:11.678Z,30.40
2022-08-22T15:42:43.985Z,30.30
2022-08-22T15:45:36.620Z,30.10
2022-08-22T15:48:09.603Z,30.00
2022-08-22T15:50:56.639Z,29.80
2022-08-22T15:53:30.121Z,29.70
2022-08-22T15:56:25.947Z,29.70
2022-08-22T15:59:53.383Z,29.70
2022-08-22T16:02:30.013Z,29.70
2022-08-22T16:05:24.896Z,29.50
2022-08-22T16:08:08.841Z,29.00
2022-08-22T16:10:41.417Z,28.30
2022-08-22T16:13:28.200Z,27.80
2022-08-22T16:16:01.269Z,27.40
2022-08-22T16:19:23.621Z,27.20
2022-08-22T16:22:12.219Z,27.40
2022-08-22T16:25:16.120Z,27.60
2022-08-22T16:27:56.416Z,27.40
2022-08-22T16:30:37.698Z,27.50
2022-08-22T16:33:05.911Z,27.50
2022-08-22T16:36:38.762Z,27.40
2022-08-22T16:39:13.636Z,27.20
2022-08-22T16:41:43.645Z,27.10
2022-08-22T16:44:41.442Z,27.10
2022-08-22T16:47:18.549Z,26.80
2022-08-22T16:50:08.128Z,26.40
2022-08-22T16:53:01.038Z,26.10
2022-08-22T16:56:13.385Z,25.80
2022-08-22T16:59:38.300Z,25.60
2022-08-22T17:02:43.268Z,25.30
2022-08-22T17:05:39.965Z,25.20
2022-08-22T17:08:39.381Z,24.90
2022-08-22T17:11:26.163Z,24.70
2022-08-22T17:14:12.480Z,24.60
2022-08-22T17:16:57.953Z,24.50
2022-08-22T17:19:44.735Z,24.40
2022-08-22T17:22:28.989Z,24.30
2022-08-22T17:25:15.076Z,24.20
2022-08-22T17:27:50.111Z,24.20
2022-08-22T17:30:28.660Z,24.10
2022-08-22T17:33:27.861Z,24.10
2022-08-22T17:36:21.733Z,24.00
2022-08-22T17:39:09.183Z,23.90
2022-08-22T17:41:52.328Z,23.90
2022-08-22T17:44:32.978Z,23.80
2022-08-22T17:47:12.445Z,23.70
2022-08-22T17:49:54.010Z,23.60
2022-08-22T17:52:29.948Z,23.50
2022-08-22T17:55:04.527Z,23.40
2022-08-22T17:57:39.228Z,23.40
2022-08-22T18:00:52.804Z,23.30
2022-08-22T18:03:28.640Z,23.20
2022-08-22T18:06:07.140Z,23.20
2022-08-22T18:11:40.599Z,23.00
2022-08-22T18:14:21.251Z,22.80
2022-08-22T18:16:52.496Z,22.80
2022-08-22T18:19:42.062Z,22.70
2022-08-22T18:22:22.014Z,22.70
2022-08-22T18:25:01.214Z,22.60
2022-08-22T18:27:36.145Z,22.50
2022-08-22T18:33:18.820Z,22.40
2022-08-22T18:35:55.214Z,22.40
2022-08-22T18:38:31.783Z,22.30
2022-08-22T18:41:15.081Z,22.20
2022-08-22T18:43:45.990Z,22.20
2022-08-22T18:46:51.696Z,22.20
2022-08-22T18:49:45.181Z,22.10
2022-08-22T18:52:39.812Z,22.10
2022-08-22T18:55:30.372Z,22.00
2022-08-22T18:58:43.675Z,21.90
2022-08-22T19:01:44.654Z,21.80
2022-08-22T19:04:57.926Z,21.80
2022-08-22T19:07:58.486Z,21.80
2022-08-22T19:10:44.205Z,21.70
2022-08-22T19:13:55.843Z,21.60
2022-08-22T19:16:57.635Z,21.60
2022-08-22T19:19:48.338Z,21.50
2022-08-22T19:22:26.626Z,21.50
2022-08-22T19:25:22.376Z,21.50
2022-08-22T19:30:49.872Z,21.40
2022-08-22T19:33:27.618Z,21.40
2022-08-22T19:36:28.637Z,21.30
2022-08-22T19:39:01.427Z,21.30
2022-08-22T19:41:50.210Z,21.30
2022-08-22T19:44:40.049Z,21.20
2022-08-22T19:47:30.348Z,21.20
2022-08-22T19:50:05.464Z,21.20
2022-08-22T19:52:54.464Z,21.20
2022-08-22T19:55:40.588Z,21.20
2022-08-22T19:58:30.268Z,21.20
2022-08-22T20:01:32.952Z,21.20
2022-08-22T20:04:09.909Z,21.10
2022-08-22T20:06:50.871Z,21.10
2022-08-22T20:09:33.117Z,21.10
2022-08-22T20:12:15.525Z,21.10
2022-08-22T20:14:46.773Z,21.10
2022-08-22T20:17:40.376Z,21.10
2022-08-22T20:20:35.090Z,21.10
2022-08-22T20:23:11.845Z,21.10
2022-08-22T20:25:46.515Z,21.10
2022-08-22T20:28:37.848Z,21.10
2022-08-22T20:31:11.452Z,21.10
2022-08-22T20:33:46.068Z,21.10
2022-08-22T20:36:28.371Z,21.10
2022-08-22T20:39:02.947Z,21.10
2022-08-22T20:41:36.703Z,21.10
2022-08-22T20:44:13.552Z,21.10
2022-08-22T20:46:58.056Z,21.00
2022-08-22T20:49:28.502Z,21.00
2022-08-22T20:52:00.158Z,21.00
2022-08-22T20:54:30.898Z,21.00
2022-08-22T20:57:00.730Z,21.00
2022-08-22T20:59:35.984Z,21.00
2022-08-22T21:02:12.389Z,21.00
2022-08-22T21:04:47.862Z,21.00
2022-08-22T21:07:24.745Z,21.00
2022-08-22T21:10:05.572Z,21.00
2022-08-22T21:12:32.604Z,21.00
2022-08-22T21:14:59.536Z,21.00
2022-08-22T21:17:34.522Z,21.00
2022-08-22T21:20:19.341Z,21.00
2022-08-22T21:22:52.043Z,21.00
2022-08-22T21:25:19.141Z,21.00
2022-08-22T21:27:48.416Z,20.90
2022-08-22T21:30:25.198Z,20.90
2022-08-22T21:32:56.265Z,20.90
2022-08-22T21:35:31.698Z,20.90
2022-08-22T21:38:01.644Z,20.80
2022-08-22T21:40:38.305Z,20.80
2022-08-22T21:43:09.988Z,20.80
2022-08-22T21:45:44.144Z,20.80
2022-08-22T21:48:32.542Z,20.70
2022-08-22T21:51:22.160Z,20.70
2022-08-22T21:54:16.091Z,20.70
2022-08-22T21:56:37.849Z,20.70
2022-08-22T21:59:50.777Z,20.70
2022-08-22T22:02:34.213Z,20.60
2022-08-22T22:05:09.342Z,20.60
2022-08-22T22:07:39.275Z,20.60
2022-08-22T22:10:12.231Z,20.60
2022-08-22T22:12:40.410Z,20.50
2022-08-22T22:15:09.381Z,20.50
2022-08-22T22:17:36.495Z,20.50
2022-08-22T22:20:05.607Z,20.50
2022-08-22T22:22:33.966Z,20.50
2022-08-22T22:25:05.849Z,20.50
2022-08-22T22:27:54.374Z,20.50
2022-08-22T22:33:16.578Z,20.40
2022-08-22T22:35:44.469Z,20.40
2022-08-22T22:38:12.185Z,20.40
2022-08-22T22:40:40.115Z,20.40
2022-08-22T22:43:09.081Z,20.40
2022-08-22T22:45:36.554Z,20.40
2022-08-22T22:48:05.168Z,20.30
2022-08-22T22:50:32.825Z,20.30
2022-08-22T22:52:59.829Z,20.30
2022-08-22T22:55:26.918Z,20.30
2022-08-22T22:57:58.735Z,20.20
2022-08-22T23:00:31.106Z,20.20
2022-08-22T23:02:59.711Z,20.20
2022-08-22T23:05:27.215Z,20.20
2022-08-22T23:07:54.261Z,20.10
2022-08-22T23:10:22.266Z,20.10
2022-08-22T23:12:49.487Z,20.10
2022-08-22T23:15:16.668Z,20.00
2022-08-22T23:17:45.126Z,20.00
2022-08-22T23:20:12.648Z,20.00
2022-08-22T23:22:39.775Z,20.00
2022-08-22T23:25:07.306Z,19.90
2022-08-22T23:27:34.499Z,19.90
2022-08-22T23:30:01.340Z,19.90
2022-08-22T23:32:28.601Z,19.80
2022-08-22T23:34:57.102Z,19.80
2022-08-22T23:37:24.267Z,19.80
2022-08-22T23:39:51.251Z,19.80
2022-08-22T23:42:18.324Z,19.70
2022-08-22T23:44:45.945Z,19.70
2022-08-22T23:47:15.208Z,19.70
2022-08-22T23:49:43.351Z,19.70
2022-08-22T23:52:13.765Z,19.60
2022-08-22T23:54:40.705Z,19.60
2022-08-22T23:57:12.153Z,19.60
2022-08-22T23:59:46.209Z,19.60
